Time;durP1;ratioP1;P1;durP2;ratioP2;P2;SDS_P1;SDS_P2;PMS_P1;PMS_P2;Temp;Humidity;BMP_temperature;BMP_pressure;BME280_temperature;BME280_humidity;BME280_pressure;Samples;Min_cycle;Max_cycle;Signal;HPM_P1;HPM_P2
2022/08/26 00:00:41;;;;;;;;;5.00;4.00;;;;;23.23;62.37;101140.81;5093193;28;45059;-81
2022/08/26 00:03:06;;;;;;;;;3.75;3.75;;;;;23.24;62.80;101140.78;5093153;28;44988;-80
2022/08/26 00:05:32;;;;;;;;;3.25;3.25;;;;;23.23;62.55;101135.44;5092674;28;45119;-81
2022/08/26 00:07:57;;;;;;;;;4.00;4.00;;;;;23.20;62.46;101140.81;5092619;28;44989;-80
2022/08/26 00:10:23;;;;;;;;;5.00;5.00;;;;;23.16;62.32;101146.25;5092597;28;44969;-81
2022/08/26 00:12:49;;;;;;;;;4.50;4.50;;;;;23.00;62.88;101120.47;5091797;28;45071;-80
2022/08/26 00:15:17;;;;;;;;;3.75;3.00;;;;;23.07;62.97;101140.97;5092997;28;45996;-81
2022/08/26 00:17:43;;;;;;;;;3.00;2.50;;;;;23.08;63.45;101139.16;5092973;28;45088;-80
2022/08/26 00:20:09;;;;;;;;;3.75;3.75;;;;;22.99;63.56;101134.78;5092888;28;45022;-80
2022/08/26 00:22:35;;;;;;;;;4.00;4.00;;;;;22.98;63.43;101137.50;5091705;27;45302;-80
2022/08/26 00:25:01;;;;;;;;;2.50;2.50;;;;;23.03;63.41;101152.63;5092868;28;45558;-81
2022/08/26 00:27:26;;;;;;;;;3.50;3.50;;;;;23.02;63.52;101153.53;5091749;28;45071;-81
2022/08/26 00:29:52;;;;;;;;;4.00;4.00;;;;;22.95;63.79;101141.06;5092832;28;45044;-80
2022/08/26 00:32:17;;;;;;;;;4.50;4.00;;;;;22.98;63.74;101156.25;5093199;28;44982;-81
2022/08/26 00:34:43;;;;;;;;;3.50;3.50;;;;;22.95;63.60;101157.16;5091965;28;50888;-81
2022/08/26 00:37:09;;;;;;;;;3.00;3.00;;;;;22.90;64.03;101148.28;5091847;28;45028;-81
2022/08/26 00:39:34;;;;;;;;;3.00;3.00;;;;;22.78;64.09;101129.63;5073659;28;45134;-81
2022/08/26 00:41:59;;;;;;;;;2.75;2.75;;;;;22.90;64.28;101148.28;5092417;28;45018;-80
2022/08/26 00:44:25;;;;;;;;;3.50;3.50;;;;;22.91;63.67;101156.31;5091868;28;45072;-80
2022/08/26 00:46:57;;;;;;;;;3.25;3.25;;;;;22.84;64.17;101145.63;5092194;28;45618;-81
2022/08/26 00:49:39;;;;;;;;;4.00;4.00;;;;;22.70;64.33;101118.94;5092674;28;45005;-81
2022/08/26 00:52:08;;;;;;;;;3.00;3.00;;;;;22.85;64.69;101153.66;5091935;28;45060;-80
2022/08/26 00:54:40;;;;;;;;;4.75;4.00;;;;;22.85;64.73;101147.41;5092019;28;45628;-81
2022/08/26 00:57:10;;;;;;;;;3.75;3.00;;;;;22.74;65.00;101135.91;5091393;28;45128;-81
2022/08/26 00:59:36;;;;;;;;;4.00;3.75;;;;;22.77;64.90;101136.78;5092802;28;45055;-80
2022/08/26 01:02:03;;;;;;;;;4.75;4.00;;;;;22.85;65.30;101145.59;5092271;28;44937;-81
2022/08/26 01:04:30;;;;;;;;;3.50;3.25;;;;;22.83;65.01;101146.53;5091891;28;45833;-81
2022/08/26 01:06:56;;;;;;;;;4.00;4.00;;;;;22.89;65.10;101143.81;5091484;28;45381;-81
2022/08/26 01:09:22;;;;;;;;;5.25;5.25;;;;;22.72;65.19;101117.16;5092552;28;45339;-80
2022/08/26 01:11:53;;;;;;;;;5.00;4.50;;;;;22.79;65.01;101140.31;5091827;28;45119;-80
2022/08/26 01:14:21;;;;;;;;;6.00;5.75;;;;;22.82;64.86;101142.97;5092104;28;45069;-80
2022/08/26 01:16:47;;;;;;;;;5.50;5.50;;;;;22.80;65.35;101131.34;5091630;28;45196;-80
2022/08/26 01:19:20;;;;;;;;;4.00;4.00;;;;;22.79;65.29;101134.06;5092076;28;45036;-81
2022/08/26 01:22:17;;;;;;;;;6.00;6.00;;;;;22.81;65.31;101138.53;5091702;28;45014;-81
2022/08/26 01:24:43;;;;;;;;;6.75;6.25;;;;;22.79;65.46;101151.03;5086555;28;45713;-81
2022/08/26 01:27:12;;;;;;;;;6.50;5.50;;;;;22.67;65.58;101129.72;5091038;28;45123;-81
2022/08/26 01:29:43;;;;;;;;;4.75;4.75;;;;;22.74;66.03;101141.25;5091657;28;45160;-81
2022/08/26 01:32:13;;;;;;;;;7.25;6.00;;;;;22.84;65.72;101151.00;5091292;28;45492;-82
2022/08/26 01:34:39;;;;;;;;;6.75;5.75;;;;;22.76;65.78;101135.00;5091195;28;45712;-81
2022/08/26 01:37:37;;;;;;;;;8.00;7.00;;;;;22.65;65.41;101124.34;5089641;28;45522;-81
2022/08/26 01:40:05;;;;;;;;;7.00;7.00;;;;;22.79;66.09;101148.34;5057236;28;44975;-80
2022/08/26 01:42:30;;;;;;;;;5.50;5.50;;;;;22.79;65.87;101147.47;5091248;28;44945;-81
2022/08/26 01:44:58;;;;;;;;;6.75;6.00;;;;;22.73;65.67;101129.66;5073086;28;46354;-80
2022/08/26 01:47:26;;;;;;;;;7.50;7.25;;;;;22.79;66.05;101143.00;5091339;28;45439;-82
2022/08/26 01:49:55;;;;;;;;;7.75;7.00;;;;;22.75;65.95;101157.31;5091277;28;44990;-80
2022/08/26 01:52:25;;;;;;;;;6.75;6.00;;;;;22.71;65.96;101150.22;5090763;28;45144;-81
2022/08/26 01:54:51;;;;;;;;;7.00;6.50;;;;;22.66;65.93;101158.31;5091185;28;45498;-81
2022/08/26 01:57:20;;;;;;;;;8.75;8.75;;;;;22.61;66.41;101160.13;5090664;28;45625;-81
2022/08/26 01:59:48;;;;;;;;;6.50;6.50;;;;;22.60;66.42;101165.50;5091476;28;45080;-80
2022/08/26 02:02:14;;;;;;;;;10.25;10.00;;;;;22.47;66.14;101147.75;5091265;28;44923;-81
2022/08/26 02:04:47;;;;;;;;;9.75;9.25;;;;;22.54;66.62;101169.09;5091212;28;45612;-81
2022/08/26 02:07:16;;;;;;;;;8.75;8.00;;;;;22.51;66.77;101171.84;5090420;28;45451;-81
2022/08/26 02:09:41;;;;;;;;;9.00;9.00;;;;;22.37;66.86;101142.47;5090750;28;44956;-82
2022/08/26 02:12:09;;;;;;;;;8.50;7.75;;;;;22.51;67.41;101168.22;5090956;28;45424;-80
2022/08/26 02:14:42;;;;;;;;;10.75;9.50;;;;;22.38;67.24;101146.91;5091168;28;45406;-80
2022/08/26 02:17:09;;;;;;;;;8.75;8.00;;;;;22.36;67.01;101147.81;5090904;28;45633;-80
2022/08/26 02:19:40;;;;;;;;;8.75;8.75;;;;;22.42;67.33;101155.81;5091082;28;44688;-81
2022/08/26 02:22:12;;;;;;;;;8.25;7.75;;;;;22.40;67.56;101161.16;5090636;28;45037;-80
2022/08/26 02:24:51;;;;;;;;;11.00;10.00;;;;;22.48;67.12;101177.19;5090630;28;45121;-80
2022/08/26 02:27:20;;;;;;;;;9.75;9.00;;;;;22.45;67.15;101176.31;5090329;28;45153;-80
2022/08/26 02:29:51;;;;;;;;;9.00;8.75;;;;;22.32;66.87;101167.50;5091211;28;45009;-81
2022/08/26 02:32:16;;;;;;;;;9.00;9.00;;;;;22.34;67.55;101174.63;5090759;28;45236;-81
2022/08/26 02:34:41;;;;;;;;;9.75;9.00;;;;;22.32;67.83;101178.22;5091008;28;44983;-81
2022/08/26 02:37:09;;;;;;;;;7.75;7.50;;;;;22.27;67.68;101177.38;5090209;28;45202;-80
2022/08/26 02:39:38;;;;;;;;;10.00;10.00;;;;;22.26;67.43;101170.19;5091088;28;45216;-81
2022/08/26 02:42:04;;;;;;;;;9.50;8.25;;;;;22.23;68.41;101175.59;5090091;28;44941;-79
2022/08/26 02:44:31;;;;;;;;;8.25;8.00;;;;;22.23;68.20;101175.59;5090500;27;45738;-81
2022/08/26 02:46:56;;;;;;;;;9.75;9.25;;;;;22.25;68.16;101182.72;5094143;28;45147;-81
2022/08/26 02:49:23;;;;;;;;;12.00;11.00;;;;;22.25;68.33;101181.81;5093815;28;45103;-80
2022/08/26 02:51:49;;;;;;;;;9.00;9.00;;;;;22.14;68.15;101164.03;5094149;28;44982;-81
2022/08/26 02:54:15;;;;;;;;;11.75;10.75;;;;;22.28;67.98;101189.84;5093779;28;45550;-80
2022/08/26 02:56:42;;;;;;;;;8.50;8.50;;;;;22.28;68.58;101188.06;5093398;28;45468;-80
2022/08/26 02:59:07;;;;;;;;;10.00;9.75;;;;;22.30;67.93;101182.69;5094390;28;44934;-80
2022/08/26 03:01:34;;;;;;;;;11.00;10.00;;;;;22.26;67.69;101180.91;5093217;28;48574;-80
2022/08/26 03:04:02;;;;;;;;;9.75;9.00;;;;;22.25;68.27;101179.16;5091822;28;47852;-80
2022/08/26 03:06:28;;;;;;;;;11.50;11.00;;;;;22.29;68.44;101191.63;5093446;28;45209;-79
2022/08/26 03:08:54;;;;;;;;;11.50;11.50;;;;;22.26;68.62;101167.53;5093164;28;46801;-80
2022/08/26 03:11:20;;;;;;;;;11.25;10.50;;;;;22.27;68.62;101172.00;5093239;28;44999;-81
2022/08/26 03:13:45;;;;;;;;;10.00;9.25;;;;;22.25;68.62;101163.06;5093162;28;45176;-80
2022/08/26 03:16:12;;;;;;;;;12.00;12.00;;;;;22.29;68.21;101181.78;5093401;28;44978;-81
2022/08/26 03:18:38;;;;;;;;;11.00;11.00;;;;;22.22;68.44;101171.16;5093556;28;44923;-81
2022/08/26 03:21:05;;;;;;;;;12.00;12.00;;;;;22.24;68.34;101174.69;5093491;28;45041;-81
2022/08/26 03:23:31;;;;;;;;;11.75;10.50;;;;;22.27;68.57;101182.72;5092958;28;45502;-80
2022/08/26 03:25:57;;;;;;;;;14.75;14.75;;;;;22.26;68.17;101180.91;5091300;28;45273;-80
2022/08/26 03:28:22;;;;;;;;;12.50;12.00;;;;;22.29;68.45;101186.25;5093559;28;44951;-80
2022/08/26 03:30:48;;;;;;;;;12.50;12.00;;;;;22.19;67.80;101160.44;5093173;28;45015;-81
2022/08/26 03:33:13;;;;;;;;;11.75;11.75;;;;;22.18;68.22;101166.72;5093251;28;45526;-81
2022/08/26 03:35:42;;;;;;;;;12.00;12.00;;;;;22.28;68.58;101180.03;5093337;28;45117;-82
2022/08/26 03:38:07;;;;;;;;;12.00;11.00;;;;;22.20;68.98;101167.56;5092546;28;44997;-80
2022/08/26 03:40:35;;;;;;;;;12.25;11.50;;;;;22.30;68.62;101175.53;5092908;28;45619;-81
2022/08/26 03:43:01;;;;;;;;;12.50;11.50;;;;;22.32;68.55;101181.78;5093144;28;45994;-81
2022/08/26 03:45:26;;;;;;;;;13.75;12.75;;;;;22.32;68.82;101175.53;5093646;28;45889;-81
2022/08/26 03:47:52;;;;;;;;;12.75;11.00;;;;;22.26;68.26;101163.06;5093107;28;45344;-81
2022/08/26 03:50:20;;;;;;;;;14.50;13.00;;;;;22.27;68.49;101172.00;5092751;28;45174;-80
2022/08/26 03:52:46;;;;;;;;;15.75;14.00;;;;;22.32;68.56;101175.53;5092462;28;45144;-81
2022/08/26 03:55:13;;;;;;;;;12.00;12.00;;;;;22.25;68.78;101160.41;5092517;28;45116;-83
2022/08/26 03:57:38;;;;;;;;;13.50;12.75;;;;;22.27;68.90;101172.91;5092453;27;45052;-82
2022/08/26 04:00:11;;;;;;;;;10.00;9.50;;;;;22.25;69.08;101177.34;5093171;28;44892;-84
2022/08/26 04:02:36;;;;;;;;;16.75;14.50;;;;;22.14;69.19;101155.13;5092600;28;45389;-83
2022/08/26 04:05:02;;;;;;;;;14.00;13.00;;;;;22.03;69.14;101146.25;5092955;28;45140;-83
2022/08/26 04:07:28;;;;;;;;;13.00;13.00;;;;;22.15;69.18;101167.59;5092716;28;44855;-82
2022/08/26 04:09:57;;;;;;;;;12.75;11.50;;;;;22.12;69.18;101163.16;5092952;28;44894;-83
2022/08/26 04:12:24;;;;;;;;;15.25;14.25;;;;;22.17;69.36;101173.84;5091971;28;45748;-83
2022/08/26 04:14:51;;;;;;;;;13.50;12.75;;;;;22.01;69.46;101148.03;5092802;28;45240;-83
2022/08/26 04:17:16;;;;;;;;;15.25;13.50;;;;;22.13;69.78;101169.41;5092639;28;45131;-83
2022/08/26 04:19:42;;;;;;;;;13.00;11.75;;;;;22.14;69.21;101168.50;5092871;28;45135;-83
2022/08/26 04:22:07;;;;;;;;;15.33;13.33;;;;;22.05;69.25;101150.66;5091582;28;61947;-83
2022/08/26 04:24:33;;;;;;;;;13.25;12.00;;;;;22.14;69.65;101177.44;5092528;28;44945;-84
2022/08/26 04:27:01;;;;;;;;;15.75;15.50;;;;;22.03;69.96;101154.28;5092225;28;45135;-84
2022/08/26 04:29:26;;;;;;;;;14.75;13.50;;;;;22.10;69.72;101175.63;5092440;28;44982;-84
2022/08/26 04:31:56;;;;;;;;;16.25;15.25;;;;;21.98;69.81;101151.63;5092748;28;45917;-84
2022/08/26 04:34:24;;;;;;;;;17.75;16.75;;;;;22.03;69.86;101173.00;5090612;28;45224;-84
2022/08/26 04:36:50;;;;;;;;;17.50;15.50;;;;;21.93;69.68;101155.22;5092399;28;45272;-83
2022/08/26 04:39:16;;;;;;;;;13.25;13.25;;;;;21.94;69.74;101173.94;5092322;28;45064;-82
2022/08/26 04:41:43;;;;;;;;;17.00;15.75;;;;;21.97;69.76;101173.03;5092057;28;45484;-83
2022/08/26 04:44:09;;;;;;;;;15.00;15.00;;;;;21.96;70.38;101176.59;5092053;28;45218;-82
2022/08/26 04:46:35;;;;;;;;;15.25;15.25;;;;;21.96;70.66;101180.16;5092074;28;45158;-83
2022/08/26 04:49:01;;;;;;;;;16.50;15.75;;;;;21.99;70.72;101181.94;5092087;28;45025;-83
2022/08/26 04:51:27;;;;;;;;;16.50;15.50;;;;;22.02;70.53;101177.47;5091877;28;47229;-83
2022/08/26 04:53:55;;;;;;;;;16.00;15.50;;;;;22.06;70.57;101187.25;5091505;28;45067;-83
2022/08/26 04:56:21;;;;;;;;;17.00;16.25;;;;;22.01;70.68;101170.31;5091368;28;45048;-84
2022/08/26 04:58:48;;;;;;;;;14.50;13.50;;;;;22.10;70.69;101182.78;5091679;28;45025;-82
2022/08/26 05:01:13;;;;;;;;;17.00;16.25;;;;;22.06;70.52;101172.97;5091423;28;45185;-82
2022/08/26 05:03:39;;;;;;;;;17.00;16.25;;;;;22.16;70.11;101185.44;5092010;28;44947;-83
2022/08/26 05:06:04;;;;;;;;;14.33;14.00;;;;;22.01;70.22;101162.28;5091700;28;45820;-82
2022/08/26 05:08:30;;;;;;;;;16.75;15.00;;;;;22.02;70.20;101169.44;5090251;27;45055;-83
2022/08/26 05:10:55;;;;;;;;;19.50;19.50;;;;;22.13;70.42;101186.38;5091566;28;45855;-83
2022/08/26 05:13:23;;;;;;;;;18.00;18.00;;;;;22.19;70.57;101189.91;5091907;28;44910;-83
2022/08/26 05:15:49;;;;;;;;;16.50;16.50;;;;;22.15;70.30;101184.56;5091581;28;45154;-82
2022/08/26 05:18:17;;;;;;;;;17.25;16.00;;;;;22.20;70.18;101205.94;5091643;28;44907;-82
2022/08/26 05:20:45;;;;;;;;;18.75;17.00;;;;;22.20;70.15;101197.03;5091724;28;45683;-82
2022/08/26 05:23:12;;;;;;;;;20.50;18.00;;;;;22.14;70.22;101198.84;5091649;28;45188;-84
2022/08/26 05:25:40;;;;;;;;;19.25;17.75;;;;;22.21;70.27;101215.75;5091497;28;45017;-83
2022/08/26 05:28:06;;;;;;;;;16.50;16.50;;;;;22.05;70.29;101190.81;5090403;28;45433;-83
2022/08/26 05:30:32;;;;;;;;;19.00;18.50;;;;;22.22;70.47;101219.34;5072878;28;46125;-84
2022/08/26 05:32:57;;;;;;;;;24.25;20.00;;;;;22.15;70.56;101205.09;5091658;28;45010;-83
2022/08/26 05:35:27;;;;;;;;;20.00;19.00;;;;;22.25;70.35;101220.19;5091070;28;50297;-84
2022/08/26 05:37:52;;;;;;;;;17.50;17.25;;;;;22.25;70.50;101222.00;5091766;28;45098;-84
2022/08/26 05:40:17;;;;;;;;;20.25;18.25;;;;;22.27;70.32;101222.88;5091128;28;45938;-84
2022/08/26 05:42:46;;;;;;;;;18.50;16.25;;;;;22.19;70.25;101208.63;5091937;28;44977;-83
2022/08/26 05:45:11;;;;;;;;;19.50;18.50;;;;;22.23;70.50;101207.72;5091372;28;44931;-83
2022/08/26 05:47:37;;;;;;;;;21.75;21.00;;;;;22.09;70.42;101181.88;5091604;28;45216;-82
2022/08/26 05:50:04;;;;;;;;;18.75;18.50;;;;;22.10;69.78;101196.16;5091125;28;45517;-83
2022/08/26 05:52:30;;;;;;;;;20.25;18.25;;;;;22.29;69.85;101232.69;5090766;28;45561;-82
2022/08/26 05:54:56;;;;;;;;;23.75;21.50;;;;;22.27;70.15;101236.28;5091440;28;45037;-84
2022/08/26 05:57:21;;;;;;;;;22.25;18.25;;;;;22.15;70.08;101213.13;5091158;28;45163;-83
2022/08/26 05:59:46;;;;;;;;;19.67;18.67;;;;;22.24;69.95;101231.81;5090918;28;53101;-82
2022/08/26 06:02:11;;;;;;;;;17.50;17.50;;;;;22.26;69.87;101234.47;5091875;28;45299;-82
2022/08/26 06:04:37;;;;;;;;;19.25;18.50;;;;;22.26;70.35;101234.47;5091462;28;45085;-82
2022/08/26 06:07:02;;;;;;;;;20.00;19.75;;;;;22.26;70.11;101234.47;5090568;28;44995;-83
2022/08/26 06:09:27;;;;;;;;;18.33;16.33;;;;;22.10;70.04;101214.91;5090736;28;59218;-83
2022/08/26 06:11:53;;;;;;;;;21.00;19.50;;;;;22.08;69.97;101209.56;5090497;28;44941;-83
2022/08/26 06:14:18;;;;;;;;;17.75;17.75;;;;;22.22;70.49;101232.75;5091179;28;44878;-83
2022/08/26 06:16:44;;;;;;;;;20.00;19.00;;;;;22.18;70.02;101231.84;5091331;28;44935;-83
2022/08/26 06:19:12;;;;;;;;;22.75;21.50;;;;;22.10;70.58;101217.56;5091131;27;52453;-82
2022/08/26 06:21:39;;;;;;;;;20.50;16.75;;;;;22.22;70.22;101243.44;5093889;28;45507;-83
2022/08/26 06:26:55;;;;;;;;;19.50;19.25;;;;;22.09;70.86;101208.66;5093402;28;44966;-83
2022/08/26 06:29:21;;;;;;;;;25.75;20.50;;;;;;;;5094036;28;45825;-83
2022/08/26 06:31:47;;;;;;;;;19.50;18.75;;;;;22.29;70.46;101238.03;5094542;28;45027;-84
2022/08/26 06:34:13;;;;;;;;;23.25;19.75;;;;;22.20;70.31;101221.13;5094494;28;45027;-84
2022/08/26 06:36:41;;;;;;;;;21.25;19.00;;;;;22.25;70.34;101233.59;5094058;28;45298;-84
2022/08/26 06:39:09;;;;;;;;;23.00;20.25;;;;;22.21;70.37;101237.16;5094323;28;46042;-83
2022/08/26 06:41:36;;;;;;;;;20.50;19.50;;;;;22.23;70.53;101239.88;5094089;28;45325;-84
2022/08/26 06:44:03;;;;;;;;;20.75;20.00;;;;;22.16;70.22;101236.31;5094298;28;45033;-84
2022/08/26 06:46:29;;;;;;;;;21.00;20.25;;;;;22.14;70.30;101233.66;5093868;28;45074;-83
2022/08/26 06:48:57;;;;;;;;;20.00;18.00;;;;;22.17;70.56;101246.16;5093640;28;45591;-83
2022/08/26 06:51:28;;;;;;;;;26.50;23.50;;;;;22.11;70.17;101230.09;5092575;28;45227;-83
2022/08/26 06:53:58;;;;;;;;;17.75;16.00;;;;;22.05;70.41;101228.31;5094106;28;45206;-83
2022/08/26 06:56:26;;;;;;;;;22.00;19.25;;;;;22.16;70.52;101247.00;5092174;28;44965;-83
2022/08/26 06:58:51;;;;;;;;;21.25;19.50;;;;;22.18;70.70;101247.03;5094117;28;45092;-82
2022/08/26 07:01:23;;;;;;;;;20.25;16.25;;;;;22.17;70.76;101248.81;5094035;28;44839;-83
2022/08/26 07:03:52;;;;;;;;;18.75;16.25;;;;;22.21;70.15;101247.88;5093957;28;44988;-83
2022/08/26 07:06:18;;;;;;;;;19.00;16.50;;;;;22.16;70.50;101236.31;5093879;28;45117;-83
2022/08/26 07:08:44;;;;;;;;;19.25;17.75;;;;;22.27;70.13;101249.66;5093154;28;46416;-83
2022/08/26 07:11:11;;;;;;;;;17.75;17.50;;;;;22.23;70.06;101239.88;5093441;28;45569;-82
2022/08/26 07:13:36;;;;;;;;;20.75;19.25;;;;;22.31;69.69;101254.09;5094193;28;45073;-83
2022/08/26 07:16:04;;;;;;;;;17.00;16.50;;;;;22.24;69.75;101234.50;5093642;28;45026;-83
2022/08/26 07:18:30;;;;;;;;;19.00;18.00;;;;;22.22;69.85;101219.34;5093573;28;45730;-84
2022/08/26 07:20:55;;;;;;;;;17.75;16.75;;;;;22.30;69.24;101244.28;5093028;28;45171;-83
2022/08/26 07:23:21;;;;;;;;;16.25;15.75;;;;;22.39;69.47;101246.91;5093562;28;44894;-82
2022/08/26 07:25:46;;;;;;;;;16.00;15.67;;;;;22.34;69.27;101240.69;5092636;28;50810;-82
2022/08/26 07:28:11;;;;;;;;;20.25;18.00;;;;;22.48;69.46;101257.56;5075116;28;47242;-82
2022/08/26 07:30:39;;;;;;;;;16.25;16.25;;;;;22.51;69.12;101256.63;5093896;28;45079;-83
2022/08/26 07:33:05;;;;;;;;;11.50;10.75;;;;;22.49;69.03;101253.97;5092454;28;45022;-82
2022/08/26 07:35:30;;;;;;;;;17.75;16.50;;;;;22.56;68.63;101242.34;5093430;28;45192;-82
2022/08/26 07:37:55;;;;;;;;;19.50;16.75;;;;;22.73;68.30;101252.94;5092891;28;46052;-83
2022/08/26 07:40:22;;;;;;;;;15.25;14.75;;;;;22.80;68.33;101253.75;5092659;28;45188;-82
2022/08/26 07:42:47;;;;;;;;;18.50;18.00;;;;;22.71;67.69;101230.63;5093700;28;45196;-83
2022/08/26 07:45:13;;;;;;;;;17.50;17.25;;;;;22.88;67.63;101254.59;5093443;28;45279;-83
2022/08/26 07:47:38;;;;;;;;;16.50;15.75;;;;;22.92;67.92;101261.75;5093074;28;45136;-83
2022/08/26 07:50:04;;;;;;;;;20.75;19.50;;;;;23.01;67.06;101258.13;5093365;28;45143;-82
2022/08/26 07:52:29;;;;;;;;;17.50;16.50;;;;;23.00;67.18;101246.47;5092992;28;45073;-82
2022/08/26 07:54:57;;;;;;;;;18.25;17.25;;;;;23.11;67.53;101258.03;5092641;28;55311;-82
2022/08/26 07:57:23;;;;;;;;;15.75;15.75;;;;;23.17;67.03;101257.97;5092271;28;45317;-82
2022/08/26 07:59:49;;;;;;;;;17.00;15.00;;;;;23.25;67.12;101259.66;5093813;28;45464;-82
2022/08/26 08:02:14;;;;;;;;;14.50;13.75;;;;;23.27;66.83;101260.56;5092677;28;49975;-82
2022/08/26 08:04:39;;;;;;;;;17.50;15.75;;;;;23.27;66.17;101260.56;5093186;28;45009;-82
2022/08/26 08:07:05;;;;;;;;;16.50;15.50;;;;;23.30;65.78;101260.50;5092575;28;47032;-83
2022/08/26 08:09:30;;;;;;;;;17.50;17.00;;;;;23.25;66.37;101243.56;5092654;28;44951;-82
2022/08/26 08:11:55;;;;;;;;;15.75;15.00;;;;;23.32;66.38;101248.00;5092861;28;45058;-82
2022/08/26 08:14:21;;;;;;;;;19.25;16.25;;;;;23.44;66.10;101253.22;5093554;28;45019;-82
2022/08/26 08:16:46;;;;;;;;;14.75;14.00;;;;;23.51;65.66;101259.44;5092885;28;45712;-83
2022/08/26 08:19:12;;;;;;;;;18.25;15.00;;;;;23.28;65.60;101225.66;5092457;28;44997;-82
2022/08/26 08:21:37;;;;;;;;;13.00;13.00;;;;;23.48;65.72;101252.28;5092545;28;44912;-83
2022/08/26 08:24:03;;;;;;;;;13.75;12.75;;;;;23.30;65.72;101222.97;5092100;28;45091;-82
2022/08/26 08:26:28;;;;;;;;;12.75;12.75;;;;;23.50;65.64;101255.88;5091589;28;45167;-83
2022/08/26 08:28:55;;;;;;;;;13.25;12.75;;;;;23.49;65.19;101248.69;5074413;28;45175;-84
2022/08/26 08:31:26;;;;;;;;;14.25;12.25;;;;;23.54;64.60;101257.59;5092784;28;45036;-82
2022/08/26 08:33:52;;;;;;;;;17.50;14.75;;;;;23.53;64.55;101253.13;5092846;28;45248;-83
2022/08/26 08:36:17;;;;;;;;;15.75;14.75;;;;;23.44;64.56;101247.84;5092030;28;45298;-83
2022/08/26 08:38:43;;;;;;;;;15.25;15.00;;;;;23.37;64.84;101252.41;5092724;28;45239;-84
2022/08/26 08:41:38;;;;;;;;;10.50;10.50;;;;;23.28;65.63;101241.75;5092298;28;44908;-83
2022/08/26 08:44:09;;;;;;;;;15.00;14.25;;;;;23.48;64.74;101238.00;5073889;28;45192;-84
2022/08/26 08:46:34;;;;;;;;;15.25;14.50;;;;;23.53;64.44;101238.81;5092011;28;45091;-84
2022/08/26 08:49:02;;;;;;;;;19.00;17.50;;;;;23.75;64.72;101250.25;5092248;28;45020;-83
2022/08/26 08:52:01;;;;;;;;;11.50;11.50;;;;;23.89;64.63;101248.28;5092379;28;45055;-84
2022/08/26 08:54:27;;;;;;;;;13.50;12.75;;;;;23.94;63.67;101225.84;5092099;28;44986;-84
2022/08/26 08:57:16;;;;;;;;;14.00;12.25;;;;;24.19;63.95;101247.91;5091869;28;45792;-83
2022/08/26 09:00:03;;;;;;;;;12.00;11.25;;;;;24.14;63.36;101225.59;5091439;28;45510;-84
2022/08/26 09:02:34;;;;;;;;;12.00;12.00;;;;;24.29;63.10;101242.41;5092013;28;44950;-83
2022/08/26 09:05:18;;;;;;;;;13.00;12.25;;;;;24.30;62.66;101250.44;5091875;28;45052;-84
2022/08/26 09:07:49;;;;;;;;;14.00;13.50;;;;;24.06;63.03;101202.44;5091806;28;45409;-84
2022/08/26 09:10:33;;;;;;;;;12.00;11.50;;;;;24.32;62.79;101245.03;5091367;28;45084;-83
2022/08/26 09:13:00;;;;;;;;;11.75;11.00;;;;;24.33;62.41;101250.38;5090460;28;45600;-83
2022/08/26 09:15:39;;;;;;;;;14.50;14.50;;;;;24.17;61.93;101221.94;5073582;28;44944;-83
2022/08/26 09:18:17;;;;;;;;;14.50;13.25;;;;;24.36;61.85;101247.69;5091791;28;45494;-84
2022/08/26 09:20:52;;;;;;;;;13.75;13.00;;;;;24.43;62.13;101248.47;5091382;28;45084;-84
2022/08/26 09:23:18;;;;;;;;;14.00;13.50;;;;;24.45;62.01;101239.50;5073567;28;45069;-83
2022/08/26 09:25:50;;;;;;;;;11.25;11.25;;;;;24.43;61.90;101241.34;5090706;28;45627;-83
2022/08/26 09:28:19;;;;;;;;;12.25;12.00;;;;;24.53;61.77;101244.78;5091276;28;45048;-83
2022/08/26 09:30:46;;;;;;;;;11.50;11.00;;;;;24.50;61.91;101244.81;5091223;28;45015;-83
2022/08/26 09:33:16;;;;;;;;;11.75;10.00;;;;;24.51;62.03;101241.19;5091891;28;44945;-83
2022/08/26 09:35:46;;;;;;;;;11.25;11.00;;;;;24.62;61.67;101230.28;5092144;28;45021;-83
2022/08/26 09:38:26;;;;;;;;;12.75;11.00;;;;;24.82;60.75;101236.22;5091475;28;45250;-84
2022/08/26 09:41:04;;;;;;;;;13.00;11.50;;;;;24.84;60.35;101234.41;5091503;28;45474;-84
2022/08/26 09:43:30;;;;;;;;;10.25;10.25;;;;;24.82;60.51;101236.22;5091138;28;45041;-83
2022/08/26 09:46:13;;;;;;;;;11.25;11.00;;;;;24.71;60.24;101238.19;5091171;28;45154;-84
2022/08/26 09:48:39;;;;;;;;;12.00;10.50;;;;;24.58;60.36;101237.53;5089579;28;47541;-84
2022/08/26 09:51:26;;;;;;;;;12.00;11.50;;;;;24.66;60.95;101232.00;5091465;28;45055;-84
2022/08/26 09:53:57;;;;;;;;;9.75;9.75;;;;;24.74;60.05;101239.97;5091287;28;45102;-84
2022/08/26 09:56:22;;;;;;;;;11.25;10.00;;;;;24.81;59.69;101239.81;5094340;28;45119;-84
2022/08/26 09:58:48;;;;;;;;;12.00;12.00;;;;;24.71;59.69;101209.50;5094959;28;47281;-84
2022/08/26 10:01:22;;;;;;;;;12.25;11.25;;;;;24.82;60.18;101238.03;5094684;28;45140;-83
2022/08/26 10:03:51;;;;;;;;;9.50;9.50;;;;;24.70;60.04;101218.50;5095176;28;44937;-84
2022/08/26 10:06:16;;;;;;;;;12.00;10.25;;;;;24.79;59.84;101233.59;5094753;28;45142;-84
2022/08/26 10:08:45;;;;;;;;;12.67;11.67;;;;;24.66;59.93;101218.56;5094449;28;45500;-84
2022/08/26 10:11:23;;;;;;;;;10.50;9.50;;;;;24.67;59.69;101231.09;5094285;28;45018;-84
2022/08/26 10:14:03;;;;;;;;;8.50;8.25;;;;;24.68;59.37;101233.78;5095343;28;45025;-83
2022/08/26 10:16:39;;;;;;;;;10.75;10.50;;;;;24.79;59.45;101235.41;5094571;28;45216;-83
2022/08/26 10:19:10;;;;;;;;;10.00;9.00;;;;;24.88;59.69;101232.56;5094514;28;45982;-83
2022/08/26 10:21:53;;;;;;;;;10.00;10.00;;;;;24.90;59.53;101222.66;5094578;28;45007;-84
2022/08/26 10:24:26;;;;;;;;;11.25;10.25;;;;;25.05;58.81;101222.41;5094310;28;44945;-83
2022/08/26 10:27:19;;;;;;;;;11.00;10.25;;;;;25.17;58.64;101208.78;5093896;28;45179;-84
2022/08/26 10:29:48;;;;;;;;;9.25;9.25;;;;;25.21;58.43;101201.50;5094833;28;45585;-84
2022/08/26 10:32:26;;;;;;;;;10.50;9.25;;;;;25.45;57.88;101224.38;5093967;28;45025;-84
2022/08/26 10:34:51;;;;;;;;;10.00;9.25;;;;;25.53;58.39;101226.94;5076083;28;44985;-84
2022/08/26 10:37:19;;;;;;;;;10.50;8.75;;;;;25.55;58.00;101223.28;5094255;28;45173;-84
2022/08/26 10:39:48;;;;;;;;;9.50;9.25;;;;;25.54;57.64;101224.22;5093762;28;45828;-84
2022/08/26 10:42:35;;;;;;;;;9.00;8.00;;;;;25.43;57.63;101212.78;5093673;28;45043;-83
2022/08/26 10:45:06;;;;;;;;;7.50;7.50;;;;;25.28;57.71;101210.38;5094494;28;45024;-84
2022/08/26 10:47:58;;;;;;;;;8.50;8.50;;;;;25.26;57.61;101215.78;5093746;28;45181;-83
2022/08/26 10:50:31;;;;;;;;;9.50;9.00;;;;;25.10;57.68;101177.50;5094006;28;45553;-83
2022/08/26 10:53:18;;;;;;;;;10.00;9.75;;;;;25.48;57.25;101205.50;5093859;28;45129;-83
2022/08/26 10:55:57;;;;;;;;;10.75;10.25;;;;;25.62;57.35;101208.81;5093613;28;45222;-84
2022/08/26 10:58:44;;;;;;;;;9.50;9.00;;;;;25.62;56.63;101213.31;5094717;28;44962;-84
2022/08/26 11:01:45;;;;;;;;;7.00;7.00;;;;;25.39;57.00;101193.09;5093841;28;46357;-82
2022/08/26 11:04:26;;;;;;;;;9.25;9.25;;;;;25.36;57.16;101219.19;5093709;28;45146;-83
2022/08/26 11:07:29;;;;;;;;;9.25;8.25;;;;;25.21;57.38;101223.03;5092115;27;45065;-83
2022/08/26 11:09:56;;;;;;;;;10.00;10.00;;;;;25.09;57.07;101225.97;5093776;28;45227;-84
2022/08/26 11:12:34;;;;;;;;;9.00;8.25;;;;;24.98;57.43;101214.47;5093341;28;45301;-83
2022/08/26 11:15:01;;;;;;;;;9.75;9.50;;;;;25.02;57.08;101209.00;5094152;28;45489;-82
2022/08/26 11:17:44;;;;;;;;;10.00;10.00;;;;;25.16;57.17;101198.03;5093888;28;45001;-83
2022/08/26 11:20:22;;;;;;;;;9.50;9.00;;;;;25.41;57.45;101198.44;5093832;28;45048;-83
2022/08/26 11:22:49;;;;;;;;;10.00;9.00;;;;;25.58;56.24;101190.94;5093934;28;46132;-83
2022/08/26 11:25:16;;;;;;;;;10.00;9.00;;;;;25.79;56.18;101202.22;5091452;28;44957;-83